sensor_id;sensor_type;location;lat;lon;timestamp;P1;durP1;ratioP1;P2;durP2;ratioP2
20185;SDS011;10252;48.792;8.582;2023-04-03T00:04:16;4.13;;;2.50;;
20185;SDS011;10252;48.792;8.582;2023-04-03T00:09:18;5.28;;;2.75;;
20185;SDS011;10252;48.792;8.582;2023-04-03T00:14:19;2.95;;;2.40;;
20185;SDS011;10252;48.792;8.582;2023-04-03T00:19:20;3.30;;;2.55;;
20185;SDS011;10252;48.792;8.582;2023-04-03T00:24:21;3.42;;;2.42;;
20185;SDS011;10252;48.792;8.582;2023-04-03T00:29:22;4.05;;;2.67;;
20185;SDS011;10252;48.792;8.582;2023-04-03T00:34:24;3.47;;;2.28;;
20185;SDS011;10252;48.792;8.582;2023-04-03T00:39:27;5.75;;;2.58;;
20185;SDS011;10252;48.792;8.582;2023-04-03T00:49:29;5.25;;;2.25;;
20185;SDS011;10252;48.792;8.582;2023-04-03T00:54:30;3.55;;;2.30;;
20185;SDS011;10252;48.792;8.582;2023-04-03T00:59:32;2.65;;;1.95;;
20185;SDS011;10252;48.792;8.582;2023-04-03T01:04:38;4.18;;;2.47;;
20185;SDS011;10252;48.792;8.582;2023-04-03T01:09:39;4.70;;;2.90;;
20185;SDS011;10252;48.792;8.582;2023-04-03T01:14:41;5.80;;;2.38;;
20185;SDS011;10252;48.792;8.582;2023-04-03T01:19:42;3.50;;;2.05;;
20185;SDS011;10252;48.792;8.582;2023-04-03T01:24:47;3.35;;;2.22;;
20185;SDS011;10252;48.792;8.582;2023-04-03T01:29:48;3.15;;;2.15;;
20185;SDS011;10252;48.792;8.582;2023-04-03T01:34:49;2.70;;;1.90;;
20185;SDS011;10252;48.792;8.582;2023-04-03T01:39:50;3.78;;;2.65;;
20185;SDS011;10252;48.792;8.582;2023-04-03T01:44:52;4.53;;;2.50;;
20185;SDS011;10252;48.792;8.582;2023-04-03T01:49:53;3.72;;;2.70;;
20185;SDS011;10252;48.792;8.582;2023-04-03T01:54:54;3.13;;;2.20;;
20185;SDS011;10252;48.792;8.582;2023-04-03T01:59:55;3.15;;;2.40;;
20185;SDS011;10252;48.792;8.582;2023-04-03T02:04:56;4.05;;;2.35;;
20185;SDS011;10252;48.792;8.582;2023-04-03T02:09:57;3.03;;;2.53;;
20185;SDS011;10252;48.792;8.582;2023-04-03T02:14:59;5.80;;;2.30;;
20185;SDS011;10252;48.792;8.582;2023-04-03T02:20:00;3.30;;;2.20;;
20185;SDS011;10252;48.792;8.582;2023-04-03T02:25:03;3.10;;;2.40;;
20185;SDS011;10252;48.792;8.582;2023-04-03T02:30:04;3.00;;;2.13;;
20185;SDS011;10252;48.792;8.582;2023-04-03T02:35:07;4.25;;;2.47;;
20185;SDS011;10252;48.792;8.582;2023-04-03T02:40:09;5.05;;;2.65;;
20185;SDS011;10252;48.792;8.582;2023-04-03T02:45:11;3.03;;;2.70;;
20185;SDS011;10252;48.792;8.582;2023-04-03T02:50:12;3.00;;;2.30;;
20185;SDS011;10252;48.792;8.582;2023-04-03T02:55:14;4.80;;;2.58;;
20185;SDS011;10252;48.792;8.582;2023-04-03T03:00:17;3.13;;;1.98;;
20185;SDS011;10252;48.792;8.582;2023-04-03T03:05:18;2.80;;;2.10;;
20185;SDS011;10252;48.792;8.582;2023-04-03T03:10:19;5.15;;;2.22;;
20185;SDS011;10252;48.792;8.582;2023-04-03T03:15:21;3.70;;;2.30;;
20185;SDS011;10252;48.792;8.582;2023-04-03T03:20:22;4.25;;;2.17;;
20185;SDS011;10252;48.792;8.582;2023-04-03T03:25:24;2.88;;;2.17;;
20185;SDS011;10252;48.792;8.582;2023-04-03T03:30:25;6.05;;;2.40;;
20185;SDS011;10252;48.792;8.582;2023-04-03T03:35:26;3.15;;;2.10;;
20185;SDS011;10252;48.792;8.582;2023-04-03T03:40:27;3.83;;;2.30;;
20185;SDS011;10252;48.792;8.582;2023-04-03T03:45:28;3.35;;;2.63;;
20185;SDS011;10252;48.792;8.582;2023-04-03T03:50:30;5.68;;;2.60;;
20185;SDS011;10252;48.792;8.582;2023-04-03T03:55:32;2.92;;;2.38;;
20185;SDS011;10252;48.792;8.582;2023-04-03T04:00:33;5.10;;;2.88;;
20185;SDS011;10252;48.792;8.582;2023-04-03T04:05:35;3.72;;;2.70;;
20185;SDS011;10252;48.792;8.582;2023-04-03T04:10:36;2.92;;;2.60;;
20185;SDS011;10252;48.792;8.582;2023-04-03T04:15:39;4.55;;;2.80;;
20185;SDS011;10252;48.792;8.582;2023-04-03T04:20:40;4.82;;;3.33;;
20185;SDS011;10252;48.792;8.582;2023-04-03T04:25:46;7.80;;;3.42;;
20185;SDS011;10252;48.792;8.582;2023-04-03T04:30:48;3.88;;;2.88;;
20185;SDS011;10252;48.792;8.582;2023-04-03T04:35:50;4.18;;;3.00;;
20185;SDS011;10252;48.792;8.582;2023-04-03T04:40:54;6.57;;;2.80;;
20185;SDS011;10252;48.792;8.582;2023-04-03T04:46:00;4.35;;;3.38;;
20185;SDS011;10252;48.792;8.582;2023-04-03T04:51:01;6.47;;;3.45;;
20185;SDS011;10252;48.792;8.582;2023-04-03T04:56:02;6.45;;;3.63;;
20185;SDS011;10252;48.792;8.582;2023-04-03T05:01:06;3.35;;;3.00;;
20185;SDS011;10252;48.792;8.582;2023-04-03T05:06:11;3.70;;;2.40;;
20185;SDS011;10252;48.792;8.582;2023-04-03T05:11:12;5.50;;;3.22;;
20185;SDS011;10252;48.792;8.582;2023-04-03T05:16:15;35.47;;;12.55;;
20185;SDS011;10252;48.792;8.582;2023-04-03T05:21:16;27.58;;;12.23;;
20185;SDS011;10252;48.792;8.582;2023-04-03T05:26:19;43.78;;;16.27;;
20185;SDS011;10252;48.792;8.582;2023-04-03T05:31:22;64.60;;;24.17;;
20185;SDS011;10252;48.792;8.582;2023-04-03T05:36:24;17.55;;;7.63;;
20185;SDS011;10252;48.792;8.582;2023-04-03T05:41:29;19.23;;;8.25;;
20185;SDS011;10252;48.792;8.582;2023-04-03T05:46:31;17.85;;;8.20;;
20185;SDS011;10252;48.792;8.582;2023-04-03T05:51:37;11.13;;;5.65;;
20185;SDS011;10252;48.792;8.582;2023-04-03T05:56:46;7.50;;;4.20;;
20185;SDS011;10252;48.792;8.582;2023-04-03T06:01:47;6.45;;;4.00;;
20185;SDS011;10252;48.792;8.582;2023-04-03T06:06:53;5.13;;;3.00;;
20185;SDS011;10252;48.792;8.582;2023-04-03T06:11:55;11.85;;;6.40;;
20185;SDS011;10252;48.792;8.582;2023-04-03T06:16:58;5.13;;;3.40;;
20185;SDS011;10252;48.792;8.582;2023-04-03T06:21:59;2.78;;;2.58;;
20185;SDS011;10252;48.792;8.582;2023-04-03T06:27:01;6.10;;;4.35;;
20185;SDS011;10252;48.792;8.582;2023-04-03T06:32:02;5.05;;;3.38;;
20185;SDS011;10252;48.792;8.582;2023-04-03T06:37:03;8.38;;;4.28;;
20185;SDS011;10252;48.792;8.582;2023-04-03T06:42:04;5.85;;;3.00;;
20185;SDS011;10252;48.792;8.582;2023-04-03T06:47:12;3.72;;;2.70;;
20185;SDS011;10252;48.792;8.582;2023-04-03T06:52:14;4.50;;;2.67;;
20185;SDS011;10252;48.792;8.582;2023-04-03T06:57:15;7.55;;;3.40;;
20185;SDS011;10252;48.792;8.582;2023-04-03T07:02:16;2.83;;;2.35;;
20185;SDS011;10252;48.792;8.582;2023-04-03T07:07:17;2.78;;;2.10;;
20185;SDS011;10252;48.792;8.582;2023-04-03T07:12:18;5.03;;;2.58;;
20185;SDS011;10252;48.792;8.582;2023-04-03T07:17:19;3.00;;;2.30;;
20185;SDS011;10252;48.792;8.582;2023-04-03T07:22:20;3.22;;;2.45;;
20185;SDS011;10252;48.792;8.582;2023-04-03T07:27:21;5.25;;;2.05;;
20185;SDS011;10252;48.792;8.582;2023-04-03T07:32:22;3.55;;;2.33;;
20185;SDS011;10252;48.792;8.582;2023-04-03T07:37:23;3.30;;;2.38;;
20185;SDS011;10252;48.792;8.582;2023-04-03T07:42:25;3.95;;;2.08;;
20185;SDS011;10252;48.792;8.582;2023-04-03T07:47:29;3.55;;;2.50;;
20185;SDS011;10252;48.792;8.582;2023-04-03T07:52:30;3.78;;;2.35;;
20185;SDS011;10252;48.792;8.582;2023-04-03T07:57:31;4.50;;;2.35;;
20185;SDS011;10252;48.792;8.582;2023-04-03T08:02:32;2.47;;;2.28;;
20185;SDS011;10252;48.792;8.582;2023-04-03T08:07:33;2.95;;;2.13;;
20185;SDS011;10252;48.792;8.582;2023-04-03T08:12:34;2.78;;;1.90;;
20185;SDS011;10252;48.792;8.582;2023-04-03T08:17:36;2.97;;;1.95;;
20185;SDS011;10252;48.792;8.582;2023-04-03T08:22:38;3.22;;;1.90;;
20185;SDS011;10252;48.792;8.582;2023-04-03T08:27:39;4.43;;;2.38;;
20185;SDS011;10252;48.792;8.582;2023-04-03T08:32:40;4.07;;;2.58;;
20185;SDS011;10252;48.792;8.582;2023-04-03T08:37:43;2.58;;;1.80;;
20185;SDS011;10252;48.792;8.582;2023-04-03T08:48:05;3.97;;;2.30;;
20185;SDS011;10252;48.792;8.582;2023-04-03T08:53:41;3.25;;;2.10;;
20185;SDS011;10252;48.792;8.582;2023-04-03T09:03:41;5.78;;;2.63;;
20185;SDS011;10252;48.792;8.582;2023-04-03T09:08:44;2.80;;;2.55;;
20185;SDS011;10252;48.792;8.582;2023-04-03T09:18:57;3.40;;;2.40;;
20185;SDS011;10252;48.792;8.582;2023-04-03T09:24:01;3.05;;;2.40;;
20185;SDS011;10252;48.792;8.582;2023-04-03T09:29:07;7.72;;;2.80;;
20185;SDS011;10252;48.792;8.582;2023-04-03T09:34:16;7.43;;;3.80;;
20185;SDS011;10252;48.792;8.582;2023-04-03T09:39:20;4.93;;;2.00;;
20185;SDS011;10252;48.792;8.582;2023-04-03T09:44:23;4.57;;;2.35;;
20185;SDS011;10252;48.792;8.582;2023-04-03T09:49:24;2.65;;;2.10;;
20185;SDS011;10252;48.792;8.582;2023-04-03T09:54:30;3.47;;;2.03;;
20185;SDS011;10252;48.792;8.582;2023-04-03T09:59:31;2.17;;;1.90;;
20185;SDS011;10252;48.792;8.582;2023-04-03T10:04:39;5.35;;;2.83;;
20185;SDS011;10252;48.792;8.582;2023-04-03T10:09:41;4.63;;;2.30;;
20185;SDS011;10252;48.792;8.582;2023-04-03T10:14:56;3.30;;;2.08;;
20185;SDS011;10252;48.792;8.582;2023-04-03T10:20:08;3.72;;;2.30;;
20185;SDS011;10252;48.792;8.582;2023-04-03T10:25:22;2.35;;;1.80;;
20185;SDS011;10252;48.792;8.582;2023-04-03T10:46:02;2.55;;;1.98;;
20185;SDS011;10252;48.792;8.582;2023-04-03T10:56:19;2.88;;;2.15;;
20185;SDS011;10252;48.792;8.582;2023-04-03T11:01:23;3.13;;;2.00;;
20185;SDS011;10252;48.792;8.582;2023-04-03T11:06:27;2.65;;;1.90;;
20185;SDS011;10252;48.792;8.582;2023-04-03T11:11:37;3.42;;;1.85;;
20185;SDS011;10252;48.792;8.582;2023-04-03T11:16:46;22.50;;;6.85;;
20185;SDS011;10252;48.792;8.582;2023-04-03T11:21:52;3.20;;;2.10;;
20185;SDS011;10252;48.792;8.582;2023-04-03T11:26:56;1.92;;;1.77;;
20185;SDS011;10252;48.792;8.582;2023-04-03T11:37:27;9.57;;;4.50;;
20185;SDS011;10252;48.792;8.582;2023-04-03T11:42:39;2.40;;;1.88;;
20185;SDS011;10252;48.792;8.582;2023-04-03T11:47:47;3.50;;;2.20;;
20185;SDS011;10252;48.792;8.582;2023-04-03T12:03:10;5.53;;;3.25;;
20185;SDS011;10252;48.792;8.582;2023-04-03T12:08:29;2.60;;;1.70;;
20185;SDS011;10252;48.792;8.582;2023-04-03T12:13:31;2.75;;;1.80;;
20185;SDS011;10252;48.792;8.582;2023-04-03T12:23:33;3.47;;;2.00;;
20185;SDS011;10252;48.792;8.582;2023-04-03T12:28:36;4.63;;;1.95;;
20185;SDS011;10252;48.792;8.582;2023-04-03T12:44:35;3.60;;;2.50;;
20185;SDS011;10252;48.792;8.582;2023-04-03T12:54:36;4.35;;;2.55;;
20185;SDS011;10252;48.792;8.582;2023-04-03T12:59:37;3.38;;;2.05;;
20185;SDS011;10252;48.792;8.582;2023-04-03T13:04:39;7.07;;;2.13;;
20185;SDS011;10252;48.792;8.582;2023-04-03T13:09:40;3.58;;;2.40;;
20185;SDS011;10252;48.792;8.582;2023-04-03T13:14:51;3.08;;;1.70;;
20185;SDS011;10252;48.792;8.582;2023-04-03T13:19:53;2.85;;;1.95;;
20185;SDS011;10252;48.792;8.582;2023-04-03T13:24:54;3.45;;;1.98;;
20185;SDS011;10252;48.792;8.582;2023-04-03T13:29:57;4.55;;;2.10;;
20185;SDS011;10252;48.792;8.582;2023-04-03T13:34:59;5.72;;;2.38;;
20185;SDS011;10252;48.792;8.582;2023-04-03T13:40:20;2.60;;;1.58;;
20185;SDS011;10252;48.792;8.582;2023-04-03T13:45:22;10.13;;;4.95;;
20185;SDS011;10252;48.792;8.582;2023-04-03T13:50:26;2.88;;;1.90;;
20185;SDS011;10252;48.792;8.582;2023-04-03T13:55:30;2.65;;;1.90;;
20185;SDS011;10252;48.792;8.582;2023-04-03T14:00:34;3.58;;;2.05;;
20185;SDS011;10252;48.792;8.582;2023-04-03T14:05:37;3.33;;;2.10;;
20185;SDS011;10252;48.792;8.582;2023-04-03T14:10:38;7.00;;;3.65;;
20185;SDS011;10252;48.792;8.582;2023-04-03T14:15:40;5.57;;;2.40;;
20185;SDS011;10252;48.792;8.582;2023-04-03T14:20:42;7.75;;;3.08;;
20185;SDS011;10252;48.792;8.582;2023-04-03T14:25:43;6.45;;;2.30;;
20185;SDS011;10252;48.792;8.582;2023-04-03T14:30:45;4.03;;;1.95;;
20185;SDS011;10252;48.792;8.582;2023-04-03T14:35:46;3.17;;;1.88;;
20185;SDS011;10252;48.792;8.582;2023-04-03T14:40:48;5.32;;;2.00;;
20185;SDS011;10252;48.792;8.582;2023-04-03T14:45:49;1.95;;;1.73;;
20185;SDS011;10252;48.792;8.582;2023-04-03T14:50:51;2.88;;;1.65;;
20185;SDS011;10252;48.792;8.582;2023-04-03T14:55:52;2.33;;;1.90;;
20185;SDS011;10252;48.792;8.582;2023-04-03T15:00:54;10.18;;;1.88;;
20185;SDS011;10252;48.792;8.582;2023-04-03T15:05:55;3.22;;;1.90;;
20185;SDS011;10252;48.792;8.582;2023-04-03T15:10:56;4.75;;;1.90;;
20185;SDS011;10252;48.792;8.582;2023-04-03T15:15:58;2.22;;;1.55;;
20185;SDS011;10252;48.792;8.582;2023-04-03T15:20:59;3.53;;;1.35;;
20185;SDS011;10252;48.792;8.582;2023-04-03T15:26:00;3.67;;;3.35;;
20185;SDS011;10252;48.792;8.582;2023-04-03T15:31:02;5.15;;;2.10;;
20185;SDS011;10252;48.792;8.582;2023-04-03T15:36:04;6.75;;;2.83;;
20185;SDS011;10252;48.792;8.582;2023-04-03T15:41:05;6.05;;;4.38;;
20185;SDS011;10252;48.792;8.582;2023-04-03T15:46:07;7.00;;;2.70;;
20185;SDS011;10252;48.792;8.582;2023-04-03T15:51:08;2.97;;;2.35;;
20185;SDS011;10252;48.792;8.582;2023-04-03T15:56:09;4.50;;;2.50;;
20185;SDS011;10252;48.792;8.582;2023-04-03T16:01:11;3.85;;;2.42;;
20185;SDS011;10252;48.792;8.582;2023-04-03T16:06:16;3.25;;;2.40;;
20185;SDS011;10252;48.792;8.582;2023-04-03T16:11:18;3.97;;;2.50;;
20185;SDS011;10252;48.792;8.582;2023-04-03T16:16:19;5.15;;;3.33;;
20185;SDS011;10252;48.792;8.582;2023-04-03T16:21:20;5.25;;;2.88;;
20185;SDS011;10252;48.792;8.582;2023-04-03T16:26:22;4.05;;;2.53;;
20185;SDS011;10252;48.792;8.582;2023-04-03T16:31:23;4.70;;;3.00;;
20185;SDS011;10252;48.792;8.582;2023-04-03T16:36:26;3.90;;;2.42;;
20185;SDS011;10252;48.792;8.582;2023-04-03T16:41:27;4.25;;;2.60;;
20185;SDS011;10252;48.792;8.582;2023-04-03T16:46:28;3.17;;;2.20;;
20185;SDS011;10252;48.792;8.582;2023-04-03T16:51:29;4.07;;;2.70;;
20185;SDS011;10252;48.792;8.582;2023-04-03T16:56:31;2.60;;;1.67;;
20185;SDS011;10252;48.792;8.582;2023-04-03T17:01:33;4.07;;;2.17;;
20185;SDS011;10252;48.792;8.582;2023-04-03T17:06:34;3.78;;;2.20;;
20185;SDS011;10252;48.792;8.582;2023-04-03T17:11:35;2.90;;;2.30;;
20185;SDS011;10252;48.792;8.582;2023-04-03T17:16:38;6.70;;;3.10;;
20185;SDS011;10252;48.792;8.582;2023-04-03T17:21:39;4.70;;;2.42;;
20185;SDS011;10252;48.792;8.582;2023-04-03T17:26:40;3.40;;;1.92;;
20185;SDS011;10252;48.792;8.582;2023-04-03T17:31:41;7.55;;;2.55;;
20185;SDS011;10252;48.792;8.582;2023-04-03T17:36:42;4.40;;;2.38;;
20185;SDS011;10252;48.792;8.582;2023-04-03T17:41:43;3.42;;;2.22;;
20185;SDS011;10252;48.792;8.582;2023-04-03T17:46:45;3.08;;;2.33;;
20185;SDS011;10252;48.792;8.582;2023-04-03T17:51:46;5.90;;;2.40;;
20185;SDS011;10252;48.792;8.582;2023-04-03T17:56:47;3.47;;;2.33;;
20185;SDS011;10252;48.792;8.582;2023-04-03T18:01:48;5.63;;;3.25;;
20185;SDS011;10252;48.792;8.582;2023-04-03T18:06:50;4.95;;;3.08;;
20185;SDS011;10252;48.792;8.582;2023-04-03T18:11:52;4.05;;;2.30;;
20185;SDS011;10252;48.792;8.582;2023-04-03T18:16:53;19.40;;;10.23;;
20185;SDS011;10252;48.792;8.582;2023-04-03T18:21:57;22.50;;;15.82;;
20185;SDS011;10252;48.792;8.582;2023-04-03T18:27:01;3.53;;;2.80;;
20185;SDS011;10252;48.792;8.582;2023-04-03T18:32:02;4.22;;;1.80;;
20185;SDS011;10252;48.792;8.582;2023-04-03T18:37:04;5.75;;;2.08;;
20185;SDS011;10252;48.792;8.582;2023-04-03T18:42:09;4.93;;;1.92;;
20185;SDS011;10252;48.792;8.582;2023-04-03T18:47:11;4.03;;;2.17;;
20185;SDS011;10252;48.792;8.582;2023-04-03T18:52:12;2.78;;;1.88;;
20185;SDS011;10252;48.792;8.582;2023-04-03T18:57:13;3.08;;;2.10;;
20185;SDS011;10252;48.792;8.582;2023-04-03T19:02:14;2.67;;;1.75;;
20185;SDS011;10252;48.792;8.582;2023-04-03T19:07:17;5.60;;;1.77;;
20185;SDS011;10252;48.792;8.582;2023-04-03T19:12:19;5.30;;;1.98;;
20185;SDS011;10252;48.792;8.582;2023-04-03T19:17:20;1.92;;;1.50;;
20185;SDS011;10252;48.792;8.582;2023-04-03T19:22:21;2.65;;;2.05;;
20185;SDS011;10252;48.792;8.582;2023-04-03T19:27:22;4.18;;;1.88;;
20185;SDS011;10252;48.792;8.582;2023-04-03T19:32:23;3.88;;;1.85;;
20185;SDS011;10252;48.792;8.582;2023-04-03T19:37:24;4.07;;;1.92;;
20185;SDS011;10252;48.792;8.582;2023-04-03T19:42:26;7.47;;;2.38;;
20185;SDS011;10252;48.792;8.582;2023-04-03T19:47:28;3.70;;;2.15;;
20185;SDS011;10252;48.792;8.582;2023-04-03T19:52:29;3.05;;;2.03;;
20185;SDS011;10252;48.792;8.582;2023-04-03T19:57:30;3.08;;;1.65;;
20185;SDS011;10252;48.792;8.582;2023-04-03T20:02:31;2.83;;;1.70;;
20185;SDS011;10252;48.792;8.582;2023-04-03T20:07:32;1.92;;;1.60;;
20185;SDS011;10252;48.792;8.582;2023-04-03T20:12:34;2.58;;;1.55;;
20185;SDS011;10252;48.792;8.582;2023-04-03T20:17:36;3.03;;;1.50;;
20185;SDS011;10252;48.792;8.582;2023-04-03T20:22:38;2.42;;;1.70;;
20185;SDS011;10252;48.792;8.582;2023-04-03T20:27:39;5.45;;;2.25;;
20185;SDS011;10252;48.792;8.582;2023-04-03T20:32:40;3.42;;;2.05;;
20185;SDS011;10252;48.792;8.582;2023-04-03T20:37:42;3.25;;;2.05;;
20185;SDS011;10252;48.792;8.582;2023-04-03T20:42:43;3.53;;;2.10;;
20185;SDS011;10252;48.792;8.582;2023-04-03T20:47:44;9.18;;;4.65;;
20185;SDS011;10252;48.792;8.582;2023-04-03T20:52:45;3.38;;;2.10;;
20185;SDS011;10252;48.792;8.582;2023-04-03T20:57:47;3.08;;;1.95;;
20185;SDS011;10252;48.792;8.582;2023-04-03T21:02:48;4.85;;;2.47;;
20185;SDS011;10252;48.792;8.582;2023-04-03T21:23:37;4.97;;;2.95;;
20185;SDS011;10252;48.792;8.582;2023-04-03T21:28:38;6.93;;;3.63;;
20185;SDS011;10252;48.792;8.582;2023-04-03T21:33:40;7.70;;;2.17;;
20185;SDS011;10252;48.792;8.582;2023-04-03T21:38:41;4.32;;;2.08;;
20185;SDS011;10252;48.792;8.582;2023-04-03T21:43:44;8.15;;;4.20;;
20185;SDS011;10252;48.792;8.582;2023-04-03T21:48:54;4.78;;;2.83;;
20185;SDS011;10252;48.792;8.582;2023-04-03T21:54:04;6.72;;;3.35;;
20185;SDS011;10252;48.792;8.582;2023-04-03T21:59:05;3.53;;;2.28;;
20185;SDS011;10252;48.792;8.582;2023-04-03T22:04:06;3.90;;;2.08;;
20185;SDS011;10252;48.792;8.582;2023-04-03T22:09:07;3.45;;;1.83;;
20185;SDS011;10252;48.792;8.582;2023-04-03T22:14:08;5.05;;;2.38;;
20185;SDS011;10252;48.792;8.582;2023-04-03T22:19:10;2.92;;;1.50;;
20185;SDS011;10252;48.792;8.582;2023-04-03T22:24:11;3.53;;;2.75;;
20185;SDS011;10252;48.792;8.582;2023-04-03T22:29:12;3.90;;;1.77;;
20185;SDS011;10252;48.792;8.582;2023-04-03T22:34:13;6.65;;;3.80;;
20185;SDS011;10252;48.792;8.582;2023-04-03T22:39:15;4.10;;;1.83;;
20185;SDS011;10252;48.792;8.582;2023-04-03T22:44:18;3.63;;;2.17;;
20185;SDS011;10252;48.792;8.582;2023-04-03T22:49:19;3.65;;;1.40;;
20185;SDS011;10252;48.792;8.582;2023-04-03T22:54:20;4.22;;;1.98;;
20185;SDS011;10252;48.792;8.582;2023-04-03T22:59:21;3.45;;;1.70;;
20185;SDS011;10252;48.792;8.582;2023-04-03T23:04:22;3.60;;;1.48;;
20185;SDS011;10252;48.792;8.582;2023-04-03T23:09:23;3.28;;;1.70;;
20185;SDS011;10252;48.792;8.582;2023-04-03T23:14:24;5.10;;;1.88;;
20185;SDS011;10252;48.792;8.582;2023-04-03T23:19:25;2.08;;;1.55;;
20185;SDS011;10252;48.792;8.582;2023-04-03T23:24:27;3.42;;;1.33;;
20185;SDS011;10252;48.792;8.582;2023-04-03T23:29:28;4.50;;;1.60;;
20185;SDS011;10252;48.792;8.582;2023-04-03T23:34:29;6.20;;;1.70;;
20185;SDS011;10252;48.792;8.582;2023-04-03T23:39:30;2.10;;;1.30;;
20185;SDS011;10252;48.792;8.582;2023-04-03T23:44:32;1.77;;;1.17;;
20185;SDS011;10252;48.792;8.582;2023-04-03T23:49:33;1.52;;;1.10;;
20185;SDS011;10252;48.792;8.582;2023-04-03T23:54:34;3.67;;;1.60;;
20185;SDS011;10252;48.792;8.582;2023-04-03T23:59:35;6.00;;;2.08;;
